Latest Weather Observations for Cessnock Airport

IDN60801

Issued at 8:32 am EST Wednesday 12 August 2020 (issued every 10 minutes, with the page automatically refreshed every 10 minutes)

About weather observations | Map of weather stations | Latest weather observations for NSW | Other Formats
Station Details ID: 061260 Name: CESSNOCK AIRPORT AWS Lat: -32.79 Lon: 151.34 Height: 61.0 m
Data from the previous 72 hours. | See also: Recent months at Cessnock Airport
Date/Time
EST
Temp
°C
App
Temp
°C
Dew
Point
°C
Rel
Hum
%
Delta-T
°C
Wind Press
QNH
hPa
Press
MSL
hPa
Rain since
9am
mm
Dir  Spd
km/h
Gust
km/h
Spd
kts
Gust
kts
12/08:30am 9.7 9.2 9.2 97 0.2 NNE 2 6 1 3 1017.0 1017.1 0.0
12/08:00am 9.1 8.8 8.6 97 0.2 CALM 0 6 0 3 1017.1 1017.2 0.0
12/07:30am 8.6 8.2 8.2 97 0.2 CALM 0 0 0 0 1017.0 1017.1 0.0
12/07:00am 8.0 7.4 7.4 96 0.3 CALM 0 0 0 0 1016.7 1016.8 0.0
12/06:30am 7.9 7.3 7.3 96 0.3 CALM 0 6 0 3 1016.4 1016.4 0.0
12/06:00am 8.2 7.6 7.6 96 0.3 CALM 0 0 0 0 1016.2 1016.2 0.0
12/05:30am 8.4 7.9 7.8 96 0.3 CALM 0 0 0 0 1016.3 1016.3 0.0
12/05:00am 8.4 7.9 7.8 96 0.3 CALM 0 0 0 0 1016.1 1016.1 0.0
12/04:30am 8.4 6.6 7.8 96 0.3 W 7 9 4 5 1016.1 1016.1 0.0
12/04:00am 8.3 7.0 7.7 96 0.3 SE 4 7 2 4 1015.9 1015.9 0.0
12/03:30am 8.2 7.6 7.6 96 0.3 CALM 0 0 0 0 1016.4 1016.4 0.0
12/03:00am 8.2 7.6 7.6 96 0.3 CALM 0 0 0 0 1016.3 1016.3 0.0
12/02:30am 8.2 7.6 7.6 96 0.3 CALM 0 0 0 0 1016.5 1016.6 0.0
12/02:00am 8.4 6.8 8.0 97 0.2 SW 6 9 3 5 1016.7 1016.8 0.0
12/01:30am 8.1 6.4 7.5 96 0.3 S 6 7 3 4 1017.3 1017.4 0.0
12/01:00am 7.8 6.0 7.2 96 0.3 S 6 7 3 4 1017.8 1017.9 0.0
12/12:30am 7.7 6.3 7.1 96 0.3 SE 4 6 2 3 1017.8 1017.9 0.0
12/12:00am 7.6 6.5 6.9 95 0.3 SW 2 9 1 5 1018.2 1018.3 0.0
 
Date/Time
EST
Temp
°C
App
Temp
°C
Dew
Point
°C
Rel
Hum
%
Delta-T
°C
Wind Press
QNH
hPa
Press
MSL
hPa
Rain since
9am
mm
Dir  Spd
km/h
Gust
km/h
Spd
kts
Gust
kts
11/11:30pm 7.8 7.1 7.1 95 0.3 CALM 0 0 0 0 1018.2 1018.3 0.0
11/11:00pm 8.1 6.1 7.3 95 0.4 SW 7 9 4 5 1017.9 1018.0 0.0
11/10:30pm 8.0 6.6 7.1 94 0.4 SW 4 6 2 3 1017.9 1018.0 0.0
11/10:00pm 8.3 6.6 7.5 95 0.4 SSE 6 7 3 4 1018.0 1018.1 0.0
11/09:30pm 8.3 6.6 7.5 95 0.4 SSW 6 9 3 5 1018.3 1018.4 0.0
11/09:00pm 8.7 7.1 7.8 94 0.4 S 6 7 3 4 1018.8 1018.9 0.0
11/08:30pm 8.3 6.3 7.1 92 0.6 WSW 7 9 4 5 1019.0 1019.1 0.0
11/08:00pm 8.5 6.5 7.0 90 0.7 SW 7 11 4 6 1018.5 1018.6 0.0
11/07:30pm 9.7 7.2 8.0 89 0.8 SW 11 13 6 7 1018.6 1018.7 0.0
11/07:00pm 9.9 7.7 7.8 87 1.0 WSW 9 13 5 7 1018.6 1018.7 0.0
11/06:30pm 11.2 9.5 8.2 82 1.5 WSW 7 9 4 5 1018.0 1018.1 0.0
11/06:00pm 12.3 10.8 8.6 78 1.8 SE 6 7 3 4 1017.5 1017.6 0.0
11/05:30pm 13.6 12.0 8.9 73 2.4 ENE 7 9 4 5 1017.4 1017.5 0.0
11/05:00pm 14.4 12.5 9.0 70 2.7 E 9 11 5 6 1017.4 1017.5 0.0
11/04:30pm 15.9 12.7 8.6 62 3.7 ENE 15 19 8 10 1017.4 1017.5 0.0
11/04:00pm 16.6 14.1 8.3 58 4.2 E 11 15 6 8 1017.3 1017.4 0.0
11/03:30pm 16.9 14.3 7.8 55 4.6 E 11 13 6 7 1017.4 1017.5 0.0
11/03:00pm 17.4 14.5 6.6 49 5.3 N 11 13 6 7 1017.4 1017.5 0.0
11/02:30pm 17.3 14.4 6.5 49 5.3 NNE 11 13 6 7 1017.4 1017.5 0.0
11/02:00pm 16.8 14.8 7.2 53 4.8 N 7 11 4 6 1017.7 1017.8 0.0
11/01:30pm 16.6 14.4 7.8 56 4.4 E 9 13 5 7 1017.6 1017.7 0.0
11/01:00pm 16.9 14.7 7.8 55 4.6 ESE 9 13 5 7 1017.9 1018.0 0.0
11/12:30pm 17.0 15.1 6.5 50 5.2 SW 6 11 3 6 1018.7 1018.8 0.0
11/12:00pm 16.7 15.1 6.5 51 5.0 SSE 4 9 2 5 1019.3 1019.4 0.0
11/11:30am 16.8 15.1 7.4 54 4.7 WSW 6 9 3 5 1019.7 1019.8 0.0
11/11:00am 15.9 13.8 6.6 54 4.5 SW 7 13 4 7 1020.0 1020.1 0.0
11/10:30am 15.6 13.2 7.1 57 4.2 S 9 17 5 9 1020.4 1020.5 0.0
11/10:00am 15.0 12.6 6.8 58 4.0 SSW 9 13 5 7 1020.7 1020.8 0.0
11/09:30am 14.0 11.3 7.3 64 3.3 S 11 15 6 8 1020.5 1020.6 0.0
11/09:00am 12.6 11.4 7.9 73 2.3 NW 4 7 2 4 1020.6 1020.7 1.4
11/08:30am 11.4 10.8 8.8 84 1.3 N 2 7 1 4 1020.7 1020.8 1.4
11/08:00am 10.2 9.0 8.0 86 1.1 NNE 4 9 2 5 1020.8 1020.9 1.4
11/07:30am 9.5 7.3 7.8 89 0.8 NNE 9 13 5 7 1021.0 1021.1 1.4
11/07:00am 8.8 6.4 7.1 89 0.8 NNE 9 11 5 6 1020.4 1020.5 1.4
11/06:30am 9.5 7.4 6.0 79 1.6 SSW 6 9 3 5 1020.3 1020.4 1.4
11/06:00am 10.2 7.8 6.9 80 1.6 SW 9 13 5 7 1020.1 1020.2 1.4
11/05:30am 10.6 8.3 7.5 81 1.5 SSW 9 11 5 6 1020.0 1020.1 1.4
11/05:00am 10.9 7.8 7.4 79 1.7 SSW 13 19 7 10 1019.8 1019.9 1.4
11/04:30am 10.9 8.2 7.4 79 1.7 SSW 11 17 6 9 1019.8 1019.9 1.4
11/04:00am 11.1 8.8 7.6 79 1.7 SW 9 17 5 9 1019.7 1019.8 1.4
11/03:30am 10.7 8.1 7.6 81 1.5 SSW 11 15 6 8 1019.4 1019.5 1.4
11/03:00am 11.1 8.2 8.0 81 1.5 SW 13 19 7 10 1019.5 1019.6 1.4
11/02:30am 11.1 8.1 7.8 80 1.6 SSW 13 19 7 10 1019.7 1019.8 1.4
11/02:00am 11.1 8.6 8.0 81 1.5 SW 11 19 6 10 1019.4 1019.5 1.4
11/01:30am 11.2 8.3 8.1 81 1.5 SW 13 24 7 13 1019.5 1019.6 1.4
11/01:00am 11.2 8.3 8.2 82 1.5 SW 13 19 7 10 1019.5 1019.6 1.4
11/12:30am 11.2 9.5 8.2 82 1.5 SW 7 11 4 6 1019.6 1019.7 1.4
11/12:00am 11.1 8.6 8.3 83 1.4 SW 11 17 6 9 1019.3 1019.4 1.4
 
Date/Time
EST
Temp
°C
App
Temp
°C
Dew
Point
°C
Rel
Hum
%
Delta-T
°C
Wind Press
QNH
hPa
Press
MSL
hPa
Rain since
9am
mm
Dir  Spd
km/h
Gust
km/h
Spd
kts
Gust
kts
10/11:30pm 10.6 8.6 8.7 88 0.9 WSW 9 17 5 9 1019.2 1019.3 1.4
10/11:00pm 8.7 6.9 7.2 90 0.7 WNW 6 7 3 4 1019.3 1019.4 1.4
10/10:30pm 9.1 7.3 7.1 87 0.9 NW 6 9 3 5 1019.0 1019.1 1.4
10/10:00pm 10.8 8.9 7.5 80 1.6 SSW 7 11 4 6 1019.0 1019.1 1.4
10/09:30pm 10.9 7.9 7.6 80 1.6 S 13 19 7 10 1019.3 1019.4 1.4
10/09:00pm 11.2 7.5 7.9 80 1.6 S 17 24 9 13 1019.2 1019.3 1.4
10/08:30pm 11.4 8.8 7.7 78 1.8 SSW 11 20 6 11 1019.1 1019.2 1.4
10/08:00pm 11.6 9.4 7.7 77 1.9 SSW 9 17 5 9 1019.0 1019.1 1.4
10/07:30pm 12.0 8.9 7.1 72 2.4 SSW 13 20 7 11 1018.9 1019.0 1.4
10/07:00pm 12.2 9.0 6.9 70 2.5 SSW 13 20 7 11 1018.6 1018.7 1.4
10/06:30pm 12.2 9.1 7.1 71 2.5 SSW 13 19 7 10 1018.2 1018.3 1.4
10/06:00pm 13.0 8.8 7.5 69 2.7 SSW 19 28 10 15 1018.0 1018.1 1.4
10/05:30pm 12.5 8.3 7.6 72 2.4 S 19 30 10 16 1017.7 1017.8 1.4
10/05:00pm 13.4 8.4 8.0 70 2.7 S 24 39 13 21 1017.4 1017.5 1.4
10/04:30pm 13.5 8.5 7.9 69 2.8 S 24 41 13 22 1017.0 1017.1 1.4
10/04:00pm 13.8 8.0 7.8 67 3.0 S 28 41 15 22 1016.6 1016.7 1.4
10/03:50pm 13.9 8.1 7.9 67 3.0 SSW 28 48 15 26 1016.6 1016.7 1.4
10/03:30pm 13.6 7.2 8.7 72 2.5 S 32 44 17 24 1016.2 1016.2 1.4
10/03:00pm 14.0 9.2 8.8 71 2.6 S 24 33 13 18 1015.7 1015.7 1.4
10/02:30pm 14.9 8.7 7.7 62 3.6 S 30 48 16 26 1015.7 1015.7 1.4
10/02:24pm 15.3 9.7 8.8 65 3.3 S 28 48 15 26 1015.4 1015.4 1.4
10/02:00pm 15.1 10.3 9.0 67 3.1 S 24 41 13 22 1015.3 1015.3 1.4
10/01:46pm 14.8 9.0 8.1 64 3.4 SSE 28 46 15 25 1015.5 1015.5 1.4
10/01:30pm 16.3 10.8 9.0 62 3.8 S 28 39 15 21 1015.1 1015.1 1.4
10/01:02pm 16.6 10.7 9.1 61 3.9 S 30 48 16 26 1014.6 1014.6 1.4
10/01:00pm 16.4 9.8 7.9 57 4.3 S 32 48 17 26 1014.6 1014.6 1.4
10/12:44pm 15.7 9.1 7.7 59 4.0 S 32 50 17 27 1014.6 1014.6 1.4
10/12:30pm 15.6 9.2 8.6 63 3.6 S 32 48 17 26 1014.5 1014.5 1.4
10/12:00pm 14.5 6.9 8.9 69 2.8 SSW 39 59 21 32 1014.9 1014.9 1.4
10/11:32am 15.8 8.9 9.0 64 3.5 S 35 54 19 29 1014.0 1014.0 1.4
10/11:30am 15.9 9.2 9.8 67 3.2 S 35 50 19 27 1014.0 1014.0 1.4
10/11:04am 15.4 9.3 9.7 69 3.0 S 32 50 17 27 1013.9 1013.9 1.4
10/11:00am 15.3 9.2 9.9 70 2.8 S 32 44 17 24 1013.9 1013.9 1.4
10/10:30am 15.0 9.6 10.8 76 2.2 S 30 48 16 26 1013.7 1013.7 1.4
10/10:17am 14.0 8.8 10.4 79 1.9 S 28 50 15 27 1013.7 1013.7 1.4
10/10:00am 12.8 8.9 10.7 87 1.1 SSW 22 37 12 20 1013.8 1013.8 1.4
10/09:30am 12.3 8.1 11.0 92 0.7 S 24 39 13 21 1013.3 1013.3 1.2
10/09:00am 12.0 9.2 11.5 97 0.3 SSW 17 37 9 20 1013.1 1013.1 22.2
10/08:30am 11.5 9.8 11.2 98 0.2 SSW 11 15 6 8 1012.4 1012.4 18.6
10/08:00am 9.3 9.1 9.0 98 0.1 CALM 0 6 0 3 1012.3 1012.3 15.8
10/07:30am 9.1 7.1 8.6 97 0.2 NNE 9 13 5 7 1011.6 1011.6 13.0
10/07:00am 8.8 7.1 8.4 97 0.2 NNW 7 11 4 6 1011.1 1011.1 11.2
10/06:30am 8.4 7.2 8.0 97 0.2 NNW 4 7 2 4 1010.9 1010.9 9.6
10/06:00am 8.4 6.8 8.0 97 0.2 N 6 9 3 5 1010.4 1010.4 9.4
10/05:30am 8.1 6.4 7.7 97 0.2 N 6 9 3 5 1009.7 1009.7 9.4
10/05:00am 8.0 5.7 7.4 96 0.3 N 9 11 5 6 1009.2 1009.2 9.4
10/04:30am 8.2 6.9 7.8 97 0.2 WNW 4 9 2 5 1008.8 1008.8 9.4
10/04:00am 8.0 5.7 7.6 97 0.2 WNW 9 17 5 9 1008.8 1008.8 9.0
10/03:30am 7.8 4.7 7.2 96 0.3 NW 13 19 7 10 1009.0 1009.0 6.2
10/03:00am 7.7 5.3 7.1 96 0.3 NNW 9 13 5 7 1009.3 1009.3 4.6
10/02:30am 7.7 5.7 7.1 96 0.3 N 7 9 4 5 1009.1 1009.1 4.6
10/02:00am 7.6 5.8 7.0 96 0.3 N 6 7 3 4 1008.9 1008.9 4.6
10/01:30am 7.3 6.1 6.6 95 0.3 W 2 6 1 3 1009.0 1009.0 4.6
10/01:00am 7.6 5.7 6.9 95 0.3 NW 6 9 3 5 1009.1 1009.1 4.6
10/12:30am 7.8 7.1 7.1 95 0.3 CALM 0 6 0 3 1008.8 1008.8 4.6
10/12:00am 7.7 5.9 7.0 95 0.3 W 6 9 3 5 1008.5 1008.5 4.6
 
Date/Time
EST
Temp
°C
App
Temp
°C
Dew
Point
°C
Rel
Hum
%
Delta-T
°C
Wind Press
QNH
hPa
Press
MSL
hPa
Rain since
9am
mm
Dir  Spd
km/h
Gust
km/h
Spd
kts
Gust
kts
09/11:30pm 7.7 6.2 7.0 95 0.3 NW 4 9 2 5 1008.2 1008.2 4.6
09/11:00pm 7.8 5.8 6.9 94 0.4 NNW 7 15 4 8 1008.0 1008.0 4.6
09/10:30pm 7.9 4.3 6.8 93 0.5 NNW 15 24 8 13 1007.3 1007.3 4.2
09/10:00pm 7.8 3.2 6.7 93 0.5 NNW 20 37 11 20 1006.6 1006.6 4.2
09/09:30pm 8.0 3.4 6.5 90 0.7 NNW 20 32 11 17 1006.2 1006.2 3.6
09/09:00pm 8.3 3.4 6.8 90 0.7 NW 22 35 12 19 1006.0 1006.0 2.8
09/08:30pm 8.7 4.4 6.8 88 0.9 NW 19 30 10 16 1006.7 1006.7 2.0
09/08:00pm 9.3 4.8 6.0 80 1.5 NW 19 30 10 16 1007.2 1007.2 0.2
09/07:30pm 10.4 6.5 5.2 70 2.4 NW 15 26 8 14 1007.5 1007.5 0.0
09/07:00pm 11.6 6.5 4.1 60 3.4 W 20 32 11 17 1008.0 1008.0 0.0
09/06:30pm 12.4 8.6 3.9 56 3.8 NW 13 22 7 12 1008.1 1008.1 0.0
09/06:00pm 12.7 8.5 3.6 54 4.1 WNW 15 24 8 13 1007.9 1007.9 0.0
09/05:30pm 12.8 8.6 3.7 54 4.1 WNW 15 28 8 15 1007.8 1007.8 0.0
09/05:00pm 13.1 8.1 3.7 53 4.3 WNW 19 33 10 18 1007.9 1007.9 0.0
09/04:30pm 13.4 8.4 3.8 52 4.4 WNW 19 30 10 16 1007.8 1007.8 0.0
09/04:00pm 13.8 8.9 3.9 51 4.5 WNW 19 26 10 14 1007.7 1007.7 0.0
09/03:30pm 13.9 9.5 5.0 55 4.2 WNW 17 24 9 13 1007.7 1007.7 0.0
09/03:00pm 13.9 9.5 4.8 54 4.2 NW 17 32 9 17 1007.7 1007.7 0.0
09/02:30pm 13.6 9.3 5.3 57 3.9 NW 17 28 9 15 1008.0 1008.0 0.0
09/02:00pm 13.6 9.2 5.0 56 4.0 NW 17 28 9 15 1008.3 1008.3 0.0
09/01:30pm 13.1 8.4 5.0 58 3.8 NW 19 32 10 17 1008.7 1008.7 0.0
09/01:00pm 13.7 8.4 4.8 55 4.1 NW 22 39 12 21 1009.2 1009.2 0.0
09/12:30pm 13.0 8.1 5.2 59 3.6 NW 20 32 11 17 1009.5 1009.5 0.0
09/12:00pm 12.9 8.3 5.8 62 3.4 NNW 19 30 10 16 1010.1 1010.1 0.0
09/11:30am 12.2 7.4 5.8 65 3.0 NW 20 33 11 18 1010.9 1010.9 0.0
09/11:00am 11.4 8.6 5.3 66 2.8 NW 9 20 5 11 1011.5 1011.5 0.0
09/10:30am 11.1 6.8 5.2 67 2.7 NW 17 26 9 14 1011.7 1011.7 0.0
09/10:00am 10.9 6.6 5.2 68 2.6 NW 17 28 9 15 1011.9 1011.9 0.0
09/09:30am 10.7 6.9 5.7 71 2.3 NNW 15 22 8 12 1012.1 1012.1 0.0
09/09:00am 10.5 5.9 5.7 72 2.2 NW 19 26 10 14 1012.3 1012.3 1.0

Other formats

Comma delimited format used in spreadsheet applications
http://www.bom.gov.au/fwo/IDN60801/IDN60801.95771.axf

JavaScript Object Notation format (JSON) in row-major order
http://www.bom.gov.au/fwo/IDN60801/IDN60801.95771.json

Data quality

Most of these data are generated automatically and are frequently updated. Quality checks on data are not normally performed. It is possible for incorrect values to appear. Refer to information at About Latest Weather Observations and please check the disclaimer before using these data.